createdAt,value
2022-09-10T00:01:11.426Z,4.0
2022-09-10T00:06:17.631Z,4.0
2022-09-10T00:11:23.839Z,4.0
2022-09-10T00:16:30.133Z,4.0
2022-09-10T00:21:36.257Z,4.0
2022-09-10T00:26:42.462Z,5.0
2022-09-10T00:31:48.671Z,5.0
2022-09-10T00:36:54.881Z,6.0
2022-09-10T00:42:01.088Z,6.0
2022-09-10T00:47:07.316Z,7.0
2022-09-10T00:52:13.521Z,7.0
2022-09-10T00:57:19.726Z,7.0
2022-09-10T01:02:25.944Z,7.0
2022-09-10T01:07:31.165Z,8.0
2022-09-10T01:12:37.376Z,7.0
2022-09-10T01:17:43.583Z,7.0
2022-09-10T01:22:49.805Z,8.0
2022-09-10T01:27:56.004Z,7.5
2022-09-10T01:33:02.211Z,7.5
2022-09-10T01:38:08.419Z,8.0
2022-09-10T01:43:14.625Z,8.0
2022-09-10T01:48:19.864Z,9.0
2022-09-10T01:53:26.073Z,9.0
2022-09-10T01:58:31.308Z,9.0
2022-09-10T02:03:37.515Z,9.0
2022-09-10T02:08:42.771Z,10.0
2022-09-10T02:13:48.962Z,10.0
2022-09-10T02:18:55.170Z,10.0
2022-09-10T02:24:01.373Z,10.0
2022-09-10T02:29:07.585Z,10.0
2022-09-10T02:34:13.792Z,10.0
2022-09-10T02:39:20.004Z,10.0
2022-09-10T02:44:26.206Z,10.0
2022-09-10T02:54:38.626Z,10.0
2022-09-10T02:59:44.834Z,10.0
2022-09-10T03:04:51.047Z,10.0
2022-09-10T03:09:57.254Z,10.0
2022-09-10T03:15:03.460Z,10.0
2022-09-10T03:20:09.717Z,10.0
2022-09-10T03:25:15.878Z,10.0
2022-09-10T03:30:22.082Z,10.0
2022-09-10T03:35:28.298Z,9.0
2022-09-10T03:40:34.500Z,10.0
2022-09-10T03:45:40.756Z,10.0
2022-09-10T03:50:46.917Z,10.0
2022-09-10T03:55:52.151Z,10.0
2022-09-10T04:00:58.423Z,10.0
2022-09-10T04:06:03.592Z,10.0
2022-09-10T04:11:09.808Z,10.0
2022-09-10T04:16:16.053Z,10.0
2022-09-10T04:21:22.224Z,10.0
2022-09-10T04:26:28.686Z,10.0
2022-09-10T04:31:34.667Z,10.0
2022-09-10T04:36:40.848Z,10.0
2022-09-10T04:41:47.058Z,10.0
2022-09-10T04:46:53.262Z,10.0
2022-09-10T04:51:59.472Z,11.0
2022-09-10T04:57:05.677Z,11.0
2022-09-10T05:02:11.946Z,11.0
2022-09-10T05:07:18.101Z,11.5
2022-09-10T05:12:24.303Z,12.0
2022-09-10T05:17:30.510Z,12.0
2022-09-10T05:22:40.447Z,12.0
2022-09-10T05:27:42.925Z,12.0
2022-09-10T05:32:49.132Z,12.0
2022-09-10T05:43:01.558Z,13.0
2022-09-10T05:48:07.754Z,14.0
2022-09-10T05:53:13.969Z,14.0
2022-09-10T05:58:19.220Z,13.5
2022-09-10T06:03:25.414Z,14.5
2022-09-10T06:08:30.647Z,14.0
2022-09-10T06:13:36.861Z,14.0
2022-09-10T06:18:43.066Z,15.0
2022-09-10T06:23:49.270Z,15.0
2022-09-10T06:28:55.482Z,15.0
2022-09-10T06:34:01.689Z,15.0
2022-09-10T06:39:07.895Z,16.0
2022-09-10T06:44:14.114Z,16.0
2022-09-10T06:49:20.313Z,15.0
2022-09-10T06:54:26.574Z,15.0
2022-09-10T06:59:32.728Z,15.5
2022-09-10T07:04:38.942Z,15.0
2022-09-10T07:09:45.166Z,15.0
2022-09-10T07:14:51.350Z,15.0
2022-09-10T07:19:57.562Z,14.0
2022-09-10T07:25:03.777Z,14.0
2022-09-10T07:30:09.977Z,14.0
2022-09-10T07:35:16.184Z,15.0
2022-09-10T07:40:22.398Z,15.0
2022-09-10T07:45:28.633Z,16.0
2022-09-10T07:50:34.810Z,16.0
2022-09-10T07:55:40.051Z,16.0
2022-09-10T08:00:46.258Z,17.0
2022-09-10T08:05:51.493Z,16.0
2022-09-10T08:10:57.703Z,17.0
2022-09-10T08:16:03.989Z,16.0
2022-09-10T08:21:10.117Z,16.0
2022-09-10T08:26:16.332Z,17.0
2022-09-10T08:31:22.604Z,17.0
2022-09-10T08:36:28.741Z,18.0
2022-09-10T08:41:34.956Z,19.0
2022-09-10T08:46:41.422Z,20.0
2022-09-10T08:51:47.367Z,22.0
2022-09-10T08:56:53.579Z,22.0
2022-09-10T09:01:59.877Z,25.0
2022-09-10T09:07:05.993Z,26.0
2022-09-10T09:12:12.207Z,26.0
2022-09-10T09:17:18.416Z,26.0
2022-09-10T09:22:24.619Z,26.0
2022-09-10T09:27:30.828Z,24.5
2022-09-10T09:32:37.038Z,24.5
2022-09-10T09:37:43.241Z,24.0
2022-09-10T09:42:49.453Z,24.5
2022-09-10T09:47:55.663Z,25.0
2022-09-10T09:53:00.900Z,22.0
2022-09-10T09:58:07.107Z,17.0
2022-09-10T10:03:13.321Z,17.0
2022-09-10T10:08:18.550Z,17.0
2022-09-10T10:13:24.760Z,16.0
2022-09-10T10:18:30.988Z,16.0
2022-09-10T10:23:37.175Z,16.0
2022-09-10T10:28:43.385Z,16.0
2022-09-10T10:33:49.593Z,17.0
2022-09-10T10:38:55.801Z,18.0
2022-09-10T10:44:02.012Z,17.0
2022-09-10T10:49:08.218Z,18.0
2022-09-10T10:54:14.428Z,17.0
2022-09-10T10:59:20.635Z,16.0
2022-09-10T11:04:26.840Z,16.0
2022-09-10T11:09:33.053Z,15.0
2022-09-10T11:14:39.270Z,14.0
2022-09-10T11:19:45.470Z,14.0
2022-09-10T11:24:51.683Z,10.0
2022-09-10T11:29:57.890Z,9.0
2022-09-10T11:35:04.094Z,7.0
2022-09-10T11:40:10.344Z,6.0
2022-09-10T11:45:16.510Z,4.0
2022-09-10T11:50:22.722Z,4.0
2022-09-10T11:55:27.959Z,4.0
2022-09-10T12:00:34.171Z,4.0
2022-09-10T12:05:39.403Z,4.0
2022-09-10T12:10:45.615Z,4.0
2022-09-10T12:15:51.910Z,5.0
2022-09-10T12:20:58.027Z,6.0
2022-09-10T12:26:04.239Z,7.0
2022-09-10T12:31:10.468Z,8.0
2022-09-10T12:36:16.653Z,11.0
2022-09-10T12:41:22.867Z,11.0
2022-09-10T12:46:29.111Z,12.0
2022-09-10T12:51:35.284Z,13.0
2022-09-10T12:56:41.504Z,14.0
2022-09-10T13:01:47.794Z,14.0
2022-09-10T13:06:53.907Z,15.0
2022-09-10T13:12:00.126Z,16.0
2022-09-10T13:17:06.343Z,14.0
2022-09-10T13:22:12.532Z,11.0
2022-09-10T13:27:18.736Z,11.0
2022-09-10T13:32:24.949Z,10.0
2022-09-10T13:37:31.152Z,10.0
2022-09-10T13:42:37.365Z,9.0
2022-09-10T13:47:43.575Z,8.5
2022-09-10T13:52:48.810Z,6.0
2022-09-10T13:57:55.020Z,6.0
2022-09-10T14:03:00.254Z,5.0
2022-09-10T14:08:06.471Z,3.0
2022-09-10T14:13:12.680Z,3.0
2022-09-10T14:19:16.218Z,4.0
2022-09-10T14:23:25.096Z,4.0
2022-09-10T14:28:31.299Z,5.0
2022-09-10T14:33:37.577Z,6.0
2022-09-10T14:38:43.724Z,6.0
2022-09-10T14:43:49.925Z,6.0
2022-09-10T14:48:56.137Z,6.0
2022-09-10T14:54:02.342Z,5.0
2022-09-10T14:59:08.553Z,4.0
2022-09-10T15:04:14.764Z,3.0
2022-09-10T15:09:20.972Z,3.0
2022-09-10T15:14:27.174Z,3.0
2022-09-10T15:19:33.384Z,3.0
2022-09-10T15:25:05.633Z,4.0
2022-09-10T15:29:45.802Z,4.5
2022-09-10T15:34:52.013Z,5.0
2022-09-10T15:39:58.388Z,6.0
2022-09-10T15:45:04.427Z,6.0
2022-09-10T15:50:09.669Z,7.0
2022-09-10T15:55:15.878Z,7.0
2022-09-10T16:00:21.110Z,7.0
2022-09-10T16:05:27.319Z,7.0
2022-09-10T16:10:33.526Z,6.0
2022-09-10T16:15:39.806Z,6.0
2022-09-10T16:20:45.948Z,6.0
2022-09-10T16:25:52.155Z,7.0
2022-09-10T16:30:58.410Z,6.0
2022-09-10T16:36:04.574Z,6.0
2022-09-10T16:41:10.779Z,6.0
2022-09-10T16:46:17.060Z,6.0
2022-09-10T16:51:23.197Z,6.0
2022-09-10T16:56:29.426Z,6.0
2022-09-10T17:01:35.709Z,6.0
2022-09-10T17:06:41.830Z,6.0
2022-09-10T17:11:48.042Z,6.0
2022-09-10T17:16:54.244Z,6.0
2022-09-10T17:22:00.454Z,6.0
2022-09-10T17:27:06.673Z,6.5
2022-09-10T17:32:12.865Z,6.5
2022-09-10T17:37:19.077Z,7.0
2022-09-10T17:42:25.287Z,7.0
2022-09-10T17:47:30.520Z,7.0
2022-09-10T17:52:36.744Z,7.0
2022-09-10T17:57:41.969Z,8.0
2022-09-10T18:07:54.394Z,6.0
2022-09-10T18:13:00.480Z,6.0
2022-09-10T18:18:05.822Z,7.0
2022-09-10T18:23:12.033Z,7.0
2022-09-10T18:28:18.242Z,7.0
2022-09-10T18:33:24.451Z,7.0
2022-09-10T18:38:30.657Z,7.0
2022-09-10T18:43:36.884Z,7.0
2022-09-10T18:48:43.076Z,7.0
2022-09-10T18:53:49.283Z,8.0
2022-09-10T18:58:55.494Z,8.0
2022-09-10T19:04:01.767Z,9.0
2022-09-10T19:09:07.917Z,9.0
2022-09-10T19:14:14.110Z,9.0
2022-09-10T19:19:20.320Z,9.5
2022-09-10T19:24:44.067Z,10.0
2022-09-10T19:29:32.747Z,10.0
2022-09-10T19:34:38.949Z,10.0
2022-09-10T19:39:45.235Z,10.0
2022-09-10T19:44:51.368Z,11.0
2022-09-10T19:49:56.598Z,12.0
2022-09-10T19:55:02.817Z,12.0
2022-09-10T20:00:17.133Z,13.0
2022-09-10T20:05:15.223Z,13.0
2022-09-10T20:10:21.435Z,14.0
2022-09-10T20:15:27.636Z,14.0
2022-09-10T20:20:33.851Z,14.0
2022-09-10T20:25:40.054Z,15.0
2022-09-10T20:30:46.316Z,14.0
2022-09-10T20:35:52.473Z,15.0
2022-09-10T20:40:58.683Z,14.0
2022-09-10T20:46:04.932Z,13.5
2022-09-10T20:51:11.101Z,14.0
2022-09-10T20:56:17.310Z,13.0
2022-09-10T21:01:23.541Z,14.0
2022-09-10T21:06:29.727Z,14.0
2022-09-10T21:11:35.952Z,14.0
2022-09-10T21:16:42.138Z,15.0
2022-09-10T21:21:48.351Z,15.0
2022-09-10T21:26:54.555Z,16.0
2022-09-10T21:32:00.765Z,15.0
2022-09-10T21:37:06.014Z,15.0
2022-09-10T21:42:12.213Z,15.0
2022-09-10T21:47:17.456Z,15.0
2022-09-10T21:52:23.664Z,15.0
2022-09-10T21:57:28.897Z,16.0
2022-09-10T22:02:35.162Z,15.0
2022-09-10T22:07:41.320Z,16.0
2022-09-10T22:12:47.537Z,16.0
2022-09-10T22:17:53.739Z,16.0
2022-09-10T22:22:59.952Z,17.0
2022-09-10T22:28:06.484Z,17.0
2022-09-10T22:33:12.366Z,17.0
2022-09-10T22:38:19.751Z,16.5
2022-09-10T22:43:24.789Z,17.0
2022-09-10T22:48:30.999Z,18.0
2022-09-10T22:53:37.205Z,18.0
2022-09-10T22:58:43.486Z,18.0
2022-09-10T23:03:49.713Z,18.0
2022-09-10T23:08:55.838Z,18.0
2022-09-10T23:14:02.045Z,18.0
2022-09-10T23:19:08.249Z,19.0
2022-09-10T23:24:14.457Z,19.0
2022-09-10T23:29:20.659Z,20.0
2022-09-10T23:34:26.867Z,20.0
2022-09-10T23:39:33.075Z,20.0
2022-09-10T23:44:38.321Z,20.5
2022-09-10T23:49:44.529Z,21.0
2022-09-10T23:54:50.736Z,20.0
2022-09-10T23:59:56.950Z,21.0
